ESOK/KSD METAR and TAF weather

Enter ICAO airport designator
Station Type Date Time Source
ESOK METAR 2019/06/17 12:20 UTC NOAA

ESOK 171220Z 23012KT CAVOK 21/08 Q1016


Station Type Date Time Source
ESOK Decoded METAR 2019/06/17 12:20 UTC NOAA

Karlstad , Sweden (ESOK) 59-26-41N 013-20-15E
Jun 17, 2019 - 08:20 AM EDT / 2019.06.17 1220 UTC
Wind: from the SW (230 degrees) at 14 MPH (12 KT):0
Visibility: greater than 7 mile(s):0
Temperature: 69 F (21 C)
Dew Point: 46 F (8 C)
Relative Humidity: 43%
Pressure (altimeter): 30.00 in. Hg (1016 hPa)
ob: ESOK 171220Z 23012KT CAVOK 21/08 Q1016
cycle: 12

Station Type Date Time Source
ESOK TAF 2017/05/22 06:33 UTC NOAA

TAF ESOK 220530Z 2206/2224 28006KT CAVOK

Example: see airport list